sensor_id;sensor_type;location;lat;lon;timestamp;P1;durP1;ratioP1;P2;durP2;ratioP2
55346;SDS011;41218;55.700;38.270;2023-04-10T00:04:51;24.15;;;11.70;;
55346;SDS011;41218;55.700;38.270;2023-04-10T00:09:51;25.80;;;10.57;;
55346;SDS011;41218;55.700;38.270;2023-04-10T00:14:52;24.03;;;11.70;;
55346;SDS011;41218;55.700;38.270;2023-04-10T00:19:52;24.97;;;11.70;;
55346;SDS011;41218;55.700;38.270;2023-04-10T00:24:53;25.13;;;11.43;;
55346;SDS011;41218;55.700;38.270;2023-04-10T00:29:53;23.43;;;11.00;;
55346;SDS011;41218;55.700;38.270;2023-04-10T00:34:54;22.80;;;10.57;;
55346;SDS011;41218;55.700;38.270;2023-04-10T00:39:54;26.43;;;12.00;;
55346;SDS011;41218;55.700;38.270;2023-04-10T00:44:55;29.87;;;11.50;;
55346;SDS011;41218;55.700;38.270;2023-04-10T00:49:56;25.77;;;11.23;;
55346;SDS011;41218;55.700;38.270;2023-04-10T00:54:56;25.17;;;11.90;;
55346;SDS011;41218;55.700;38.270;2023-04-10T00:59:57;23.02;;;10.43;;
55346;SDS011;41218;55.700;38.270;2023-04-10T01:04:59;24.17;;;11.25;;
55346;SDS011;41218;55.700;38.270;2023-04-10T01:10:25;23.55;;;11.18;;
55346;SDS011;41218;55.700;38.270;2023-04-10T01:15:25;23.25;;;10.27;;
55346;SDS011;41218;55.700;38.270;2023-04-10T01:20:30;24.30;;;10.40;;
55346;SDS011;41218;55.700;38.270;2023-04-10T01:30:58;21.58;;;10.63;;
55346;SDS011;41218;55.700;38.270;2023-04-10T01:36:02;23.38;;;10.45;;
55346;SDS011;41218;55.700;38.270;2023-04-10T01:41:06;20.42;;;10.60;;
55346;SDS011;41218;55.700;38.270;2023-04-10T01:46:07;23.27;;;10.75;;
55346;SDS011;41218;55.700;38.270;2023-04-10T01:51:10;25.92;;;10.80;;
55346;SDS011;41218;55.700;38.270;2023-04-10T01:56:11;26.30;;;10.80;;
55346;SDS011;41218;55.700;38.270;2023-04-10T02:01:19;23.77;;;11.18;;
55346;SDS011;41218;55.700;38.270;2023-04-10T02:11:35;28.42;;;12.02;;
55346;SDS011;41218;55.700;38.270;2023-04-10T02:16:41;25.85;;;10.43;;
55346;SDS011;41218;55.700;38.270;2023-04-10T02:21:42;30.92;;;11.98;;
55346;SDS011;41218;55.700;38.270;2023-04-10T02:26:43;26.97;;;11.57;;
55346;SDS011;41218;55.700;38.270;2023-04-10T02:31:48;28.20;;;11.70;;
55346;SDS011;41218;55.700;38.270;2023-04-10T02:36:49;25.08;;;11.55;;
55346;SDS011;41218;55.700;38.270;2023-04-10T02:41:50;28.57;;;11.03;;
55346;SDS011;41218;55.700;38.270;2023-04-10T02:46:50;21.73;;;10.50;;
55346;SDS011;41218;55.700;38.270;2023-04-10T02:51:51;22.90;;;10.23;;
55346;SDS011;41218;55.700;38.270;2023-04-10T02:56:51;21.07;;;9.90;;
55346;SDS011;41218;55.700;38.270;2023-04-10T03:01:52;20.07;;;9.73;;
55346;SDS011;41218;55.700;38.270;2023-04-10T03:06:52;18.37;;;9.97;;
55346;SDS011;41218;55.700;38.270;2023-04-10T03:11:53;23.27;;;10.05;;
55346;SDS011;41218;55.700;38.270;2023-04-10T03:16:54;23.97;;;9.83;;
55346;SDS011;41218;55.700;38.270;2023-04-10T03:21:54;25.13;;;10.60;;
55346;SDS011;41218;55.700;38.270;2023-04-10T03:26:55;25.97;;;10.80;;
55346;SDS011;41218;55.700;38.270;2023-04-10T03:31:56;25.77;;;11.52;;
55346;SDS011;41218;55.700;38.270;2023-04-10T03:36:56;22.33;;;10.40;;
55346;SDS011;41218;55.700;38.270;2023-04-10T03:41:57;24.73;;;11.20;;
55346;SDS011;41218;55.700;38.270;2023-04-10T03:46:57;21.97;;;10.83;;
55346;SDS011;41218;55.700;38.270;2023-04-10T03:51:58;26.77;;;10.97;;
55346;SDS011;41218;55.700;38.270;2023-04-10T03:56:59;25.37;;;11.57;;
55346;SDS011;41218;55.700;38.270;2023-04-10T04:02:00;25.23;;;10.98;;
55346;SDS011;41218;55.700;38.270;2023-04-10T04:07:01;24.00;;;11.50;;
55346;SDS011;41218;55.700;38.270;2023-04-10T04:12:01;24.07;;;10.97;;
55346;SDS011;41218;55.700;38.270;2023-04-10T04:17:02;27.10;;;11.33;;
55346;SDS011;41218;55.700;38.270;2023-04-10T04:22:02;27.93;;;11.30;;
55346;SDS011;41218;55.700;38.270;2023-04-10T04:27:03;20.47;;;10.20;;
55346;SDS011;41218;55.700;38.270;2023-04-10T04:32:03;28.70;;;12.43;;
55346;SDS011;41218;55.700;38.270;2023-04-10T04:37:04;26.03;;;11.80;;
55346;SDS011;41218;55.700;38.270;2023-04-10T04:42:05;22.03;;;10.53;;
55346;SDS011;41218;55.700;38.270;2023-04-10T04:47:06;24.77;;;10.77;;
55346;SDS011;41218;55.700;38.270;2023-04-10T04:52:07;24.43;;;11.33;;
55346;SDS011;41218;55.700;38.270;2023-04-10T04:57:08;26.13;;;11.70;;
55346;SDS011;41218;55.700;38.270;2023-04-10T05:02:08;45.17;;;16.97;;
55346;SDS011;41218;55.700;38.270;2023-04-10T05:07:09;27.05;;;12.88;;
55346;SDS011;41218;55.700;38.270;2023-04-10T05:12:10;25.57;;;12.53;;
55346;SDS011;41218;55.700;38.270;2023-04-10T05:17:10;33.20;;;13.77;;
55346;SDS011;41218;55.700;38.270;2023-04-10T05:22:11;24.73;;;12.30;;
55346;SDS011;41218;55.700;38.270;2023-04-10T05:27:11;30.17;;;13.70;;
55346;SDS011;41218;55.700;38.270;2023-04-10T05:32:15;29.73;;;13.37;;
55346;SDS011;41218;55.700;38.270;2023-04-10T05:37:15;39.40;;;14.27;;
55346;SDS011;41218;55.700;38.270;2023-04-10T05:42:16;30.60;;;14.17;;
55346;SDS011;41218;55.700;38.270;2023-04-10T05:47:16;34.03;;;13.47;;
55346;SDS011;41218;55.700;38.270;2023-04-10T05:52:17;29.17;;;13.87;;
55346;SDS011;41218;55.700;38.270;2023-04-10T05:57:17;26.87;;;13.23;;
55346;SDS011;41218;55.700;38.270;2023-04-10T06:02:18;30.60;;;13.87;;
55346;SDS011;41218;55.700;38.270;2023-04-10T06:07:18;30.67;;;13.80;;
55346;SDS011;41218;55.700;38.270;2023-04-10T06:12:19;28.60;;;13.50;;
55346;SDS011;41218;55.700;38.270;2023-04-10T06:17:19;25.03;;;13.43;;
55346;SDS011;41218;55.700;38.270;2023-04-10T06:22:20;25.57;;;12.90;;
55346;SDS011;41218;55.700;38.270;2023-04-10T06:27:21;25.88;;;12.65;;
55346;SDS011;41218;55.700;38.270;2023-04-10T06:32:22;28.30;;;12.67;;
55346;SDS011;41218;55.700;38.270;2023-04-10T06:37:26;30.27;;;12.17;;
55346;SDS011;41218;55.700;38.270;2023-04-10T06:42:28;26.23;;;11.65;;
55346;SDS011;41218;55.700;38.270;2023-04-10T06:47:29;29.93;;;10.97;;
55346;SDS011;41218;55.700;38.270;2023-04-10T06:52:31;22.38;;;10.95;;
55346;SDS011;41218;55.700;38.270;2023-04-10T06:57:32;18.92;;;10.50;;
55346;SDS011;41218;55.700;38.270;2023-04-10T07:02:32;17.83;;;9.57;;
55346;SDS011;41218;55.700;38.270;2023-04-10T07:07:33;16.23;;;8.57;;
55346;SDS011;41218;55.700;38.270;2023-04-10T07:12:33;15.93;;;8.70;;
55346;SDS011;41218;55.700;38.270;2023-04-10T07:17:34;15.07;;;8.00;;
55346;SDS011;41218;55.700;38.270;2023-04-10T07:22:34;13.30;;;7.67;;
55346;SDS011;41218;55.700;38.270;2023-04-10T07:27:35;15.60;;;8.10;;
55346;SDS011;41218;55.700;38.270;2023-04-10T07:32:35;14.50;;;7.93;;
55346;SDS011;41218;55.700;38.270;2023-04-10T07:37:38;14.98;;;8.23;;
55346;SDS011;41218;55.700;38.270;2023-04-10T07:42:39;16.85;;;8.50;;
55346;SDS011;41218;55.700;38.270;2023-04-10T07:47:39;15.40;;;8.50;;
55346;SDS011;41218;55.700;38.270;2023-04-10T07:52:40;17.40;;;8.97;;
55346;SDS011;41218;55.700;38.270;2023-04-10T07:57:41;15.07;;;8.00;;
55346;SDS011;41218;55.700;38.270;2023-04-10T08:02:41;19.40;;;8.60;;
55346;SDS011;41218;55.700;38.270;2023-04-10T08:07:42;13.73;;;7.70;;
55346;SDS011;41218;55.700;38.270;2023-04-10T08:12:43;17.52;;;9.18;;
55346;SDS011;41218;55.700;38.270;2023-04-10T08:17:44;15.30;;;8.17;;
55346;SDS011;41218;55.700;38.270;2023-04-10T08:22:45;18.70;;;8.75;;
55346;SDS011;41218;55.700;38.270;2023-04-10T08:27:45;15.23;;;8.32;;
55346;SDS011;41218;55.700;38.270;2023-04-10T08:32:46;18.73;;;9.23;;
55346;SDS011;41218;55.700;38.270;2023-04-10T08:37:46;16.60;;;8.57;;
55346;SDS011;41218;55.700;38.270;2023-04-10T08:42:47;16.73;;;8.63;;
55346;SDS011;41218;55.700;38.270;2023-04-10T08:47:48;18.57;;;9.50;;
55346;SDS011;41218;55.700;38.270;2023-04-10T08:52:51;18.15;;;9.15;;
55346;SDS011;41218;55.700;38.270;2023-04-10T08:57:54;14.73;;;8.90;;
55346;SDS011;41218;55.700;38.270;2023-04-10T09:02:55;17.05;;;8.90;;
55346;SDS011;41218;55.700;38.270;2023-04-10T09:12:57;17.27;;;8.70;;
55346;SDS011;41218;55.700;38.270;2023-04-10T09:18:01;17.02;;;9.18;;
55346;SDS011;41218;55.700;38.270;2023-04-10T09:23:18;15.38;;;8.85;;
55346;SDS011;41218;55.700;38.270;2023-04-10T09:28:20;18.17;;;8.15;;
55346;SDS011;41218;55.700;38.270;2023-04-10T09:38:22;14.38;;;8.75;;
55346;SDS011;41218;55.700;38.270;2023-04-10T09:43:25;11.10;;;7.47;;
55346;SDS011;41218;55.700;38.270;2023-04-10T09:48:26;14.13;;;7.70;;
55346;SDS011;41218;55.700;38.270;2023-04-10T09:53:27;20.00;;;8.10;;
55346;SDS011;41218;55.700;38.270;2023-04-10T09:58:27;12.80;;;7.50;;
55346;SDS011;41218;55.700;38.270;2023-04-10T10:03:28;13.60;;;8.35;;
55346;SDS011;41218;55.700;38.270;2023-04-10T10:08:29;15.05;;;8.23;;
55346;SDS011;41218;55.700;38.270;2023-04-10T10:13:34;12.85;;;8.05;;
55346;SDS011;41218;55.700;38.270;2023-04-10T10:19:12;13.90;;;8.03;;
55346;SDS011;41218;55.700;38.270;2023-04-10T10:24:19;13.52;;;8.02;;
55346;SDS011;41218;55.700;38.270;2023-04-10T10:29:22;13.60;;;8.25;;
55346;SDS011;41218;55.700;38.270;2023-04-10T10:34:23;15.50;;;8.43;;
55346;SDS011;41218;55.700;38.270;2023-04-10T10:39:41;12.30;;;8.07;;
55346;SDS011;41218;55.700;38.270;2023-04-10T10:45:08;12.40;;;7.70;;
55346;SDS011;41218;55.700;38.270;2023-04-10T10:50:12;16.80;;;8.52;;
55346;SDS011;41218;55.700;38.270;2023-04-10T11:11:05;15.80;;;7.45;;
55346;SDS011;41218;55.700;38.270;2023-04-10T11:31:38;12.00;;;6.53;;
55346;SDS011;41218;55.700;38.270;2023-04-10T11:36:40;10.10;;;6.03;;
55346;SDS011;41218;55.700;38.270;2023-04-10T11:41:43;7.35;;;5.15;;
55346;SDS011;41218;55.700;38.270;2023-04-10T11:46:45;10.80;;;5.20;;
55346;SDS011;41218;55.700;38.270;2023-04-10T11:51:47;14.98;;;8.60;;
55346;SDS011;41218;55.700;38.270;2023-04-10T11:57:00;15.23;;;7.97;;
55346;SDS011;41218;55.700;38.270;2023-04-10T12:02:07;15.18;;;8.77;;
55346;SDS011;41218;55.700;38.270;2023-04-10T12:07:08;14.82;;;8.40;;
55346;SDS011;41218;55.700;38.270;2023-04-10T12:17:10;13.87;;;8.03;;
55346;SDS011;41218;55.700;38.270;2023-04-10T12:22:12;15.43;;;8.45;;
55346;SDS011;41218;55.700;38.270;2023-04-10T12:32:24;14.45;;;8.13;;
55346;SDS011;41218;55.700;38.270;2023-04-10T12:42:48;16.27;;;9.07;;
55346;SDS011;41218;55.700;38.270;2023-04-10T12:47:49;21.53;;;9.60;;
55346;SDS011;41218;55.700;38.270;2023-04-10T12:53:05;16.48;;;8.77;;
55346;SDS011;41218;55.700;38.270;2023-04-10T12:58:16;14.93;;;8.18;;
55346;SDS011;41218;55.700;38.270;2023-04-10T13:03:19;14.93;;;8.27;;
55346;SDS011;41218;55.700;38.270;2023-04-10T13:08:20;17.10;;;7.75;;
55346;SDS011;41218;55.700;38.270;2023-04-10T13:18:21;16.83;;;8.20;;
55346;SDS011;41218;55.700;38.270;2023-04-10T13:23:22;13.70;;;7.77;;
55346;SDS011;41218;55.700;38.270;2023-04-10T13:28:22;14.40;;;8.17;;
55346;SDS011;41218;55.700;38.270;2023-04-10T13:33:23;13.07;;;7.50;;
55346;SDS011;41218;55.700;38.270;2023-04-10T13:38:24;14.30;;;7.70;;
55346;SDS011;41218;55.700;38.270;2023-04-10T13:43:24;17.03;;;8.57;;
55346;SDS011;41218;55.700;38.270;2023-04-10T13:48:25;17.13;;;8.30;;
55346;SDS011;41218;55.700;38.270;2023-04-10T13:53:26;15.52;;;8.18;;
55346;SDS011;41218;55.700;38.270;2023-04-10T13:58:26;14.90;;;8.20;;
55346;SDS011;41218;55.700;38.270;2023-04-10T14:03:30;16.02;;;8.77;;
55346;SDS011;41218;55.700;38.270;2023-04-10T14:08:31;17.13;;;8.47;;
55346;SDS011;41218;55.700;38.270;2023-04-10T14:13:31;16.50;;;9.60;;
55346;SDS011;41218;55.700;38.270;2023-04-10T14:18:32;20.50;;;11.27;;
55346;SDS011;41218;55.700;38.270;2023-04-10T14:23:32;18.17;;;10.43;;
55346;SDS011;41218;55.700;38.270;2023-04-10T14:28:33;18.40;;;9.87;;
55346;SDS011;41218;55.700;38.270;2023-04-10T14:33:34;13.23;;;8.27;;
55346;SDS011;41218;55.700;38.270;2023-04-10T14:38:34;16.43;;;9.17;;
55346;SDS011;41218;55.700;38.270;2023-04-10T14:48:36;16.10;;;8.20;;
55346;SDS011;41218;55.700;38.270;2023-04-10T14:53:37;15.07;;;8.97;;
55346;SDS011;41218;55.700;38.270;2023-04-10T15:03:38;14.03;;;7.87;;
55346;SDS011;41218;55.700;38.270;2023-04-10T15:08:39;15.40;;;7.60;;
55346;SDS011;41218;55.700;38.270;2023-04-10T15:13:40;12.67;;;7.40;;
55346;SDS011;41218;55.700;38.270;2023-04-10T15:18:40;13.23;;;8.07;;
55346;SDS011;41218;55.700;38.270;2023-04-10T15:23:41;12.73;;;7.47;;
55346;SDS011;41218;55.700;38.270;2023-04-10T15:28:41;10.80;;;7.30;;
55346;SDS011;41218;55.700;38.270;2023-04-10T15:33:42;11.93;;;6.83;;
55346;SDS011;41218;55.700;38.270;2023-04-10T15:38:42;11.77;;;6.87;;
55346;SDS011;41218;55.700;38.270;2023-04-10T15:43:43;10.67;;;6.50;;
55346;SDS011;41218;55.700;38.270;2023-04-10T15:48:44;10.43;;;6.37;;
55346;SDS011;41218;55.700;38.270;2023-04-10T15:53:47;9.57;;;6.28;;
55346;SDS011;41218;55.700;38.270;2023-04-10T15:58:47;11.57;;;6.83;;
55346;SDS011;41218;55.700;38.270;2023-04-10T16:03:48;10.93;;;6.67;;
55346;SDS011;41218;55.700;38.270;2023-04-10T16:08:49;10.57;;;6.40;;
55346;SDS011;41218;55.700;38.270;2023-04-10T16:13:51;11.40;;;6.32;;
55346;SDS011;41218;55.700;38.270;2023-04-10T16:18:51;11.67;;;6.83;;
55346;SDS011;41218;55.700;38.270;2023-04-10T16:23:53;13.35;;;7.30;;
55346;SDS011;41218;55.700;38.270;2023-04-10T16:28:53;14.87;;;7.67;;
55346;SDS011;41218;55.700;38.270;2023-04-10T16:33:54;13.37;;;7.60;;
55346;SDS011;41218;55.700;38.270;2023-04-10T16:38:55;12.30;;;7.38;;
55346;SDS011;41218;55.700;38.270;2023-04-10T16:43:56;13.87;;;8.07;;
55346;SDS011;41218;55.700;38.270;2023-04-10T16:48:56;13.67;;;7.70;;
55346;SDS011;41218;55.700;38.270;2023-04-10T16:53:57;11.80;;;6.77;;
55346;SDS011;41218;55.700;38.270;2023-04-10T16:58:57;12.40;;;7.17;;
55346;SDS011;41218;55.700;38.270;2023-04-10T17:03:58;12.67;;;7.03;;
55346;SDS011;41218;55.700;38.270;2023-04-10T17:08:59;12.90;;;7.17;;
55346;SDS011;41218;55.700;38.270;2023-04-10T17:13:59;11.03;;;7.37;;
55346;SDS011;41218;55.700;38.270;2023-04-10T17:19:00;11.97;;;7.07;;
55346;SDS011;41218;55.700;38.270;2023-04-10T17:24:00;11.33;;;6.97;;
55346;SDS011;41218;55.700;38.270;2023-04-10T17:29:01;12.80;;;7.07;;
55346;SDS011;41218;55.700;38.270;2023-04-10T17:34:01;11.63;;;6.70;;
55346;SDS011;41218;55.700;38.270;2023-04-10T17:39:03;11.48;;;6.90;;
55346;SDS011;41218;55.700;38.270;2023-04-10T17:44:04;13.02;;;7.35;;
55346;SDS011;41218;55.700;38.270;2023-04-10T17:49:05;13.57;;;7.40;;
55346;SDS011;41218;55.700;38.270;2023-04-10T17:54:05;13.77;;;7.00;;
55346;SDS011;41218;55.700;38.270;2023-04-10T17:59:06;13.65;;;7.70;;
55346;SDS011;41218;55.700;38.270;2023-04-10T18:04:07;15.60;;;8.17;;
55346;SDS011;41218;55.700;38.270;2023-04-10T18:09:07;15.17;;;8.13;;
55346;SDS011;41218;55.700;38.270;2023-04-10T18:14:08;14.97;;;8.00;;
55346;SDS011;41218;55.700;38.270;2023-04-10T18:19:09;12.98;;;8.13;;
55346;SDS011;41218;55.700;38.270;2023-04-10T18:24:09;16.13;;;8.90;;
55346;SDS011;41218;55.700;38.270;2023-04-10T18:29:11;16.98;;;9.02;;
55346;SDS011;41218;55.700;38.270;2023-04-10T18:34:11;17.57;;;8.77;;
55346;SDS011;41218;55.700;38.270;2023-04-10T18:39:12;18.17;;;9.27;;
55346;SDS011;41218;55.700;38.270;2023-04-10T18:44:12;19.57;;;9.87;;
55346;SDS011;41218;55.700;38.270;2023-04-10T18:49:13;18.73;;;9.70;;
55346;SDS011;41218;55.700;38.270;2023-04-10T18:54:13;18.93;;;10.00;;
55346;SDS011;41218;55.700;38.270;2023-04-10T18:59:14;25.30;;;10.70;;
55346;SDS011;41218;55.700;38.270;2023-04-10T19:04:14;23.50;;;11.53;;
55346;SDS011;41218;55.700;38.270;2023-04-10T19:09:15;22.70;;;11.73;;
55346;SDS011;41218;55.700;38.270;2023-04-10T19:14:15;24.27;;;12.73;;
55346;SDS011;41218;55.700;38.270;2023-04-10T19:19:16;24.70;;;12.77;;
55346;SDS011;41218;55.700;38.270;2023-04-10T19:24:16;22.73;;;12.17;;
55346;SDS011;41218;55.700;38.270;2023-04-10T19:29:17;27.53;;;12.83;;
55346;SDS011;41218;55.700;38.270;2023-04-10T19:34:17;26.97;;;12.63;;
55346;SDS011;41218;55.700;38.270;2023-04-10T19:39:18;28.07;;;13.40;;
55346;SDS011;41218;55.700;38.270;2023-04-10T19:44:18;30.10;;;13.73;;
55346;SDS011;41218;55.700;38.270;2023-04-10T19:49:19;27.57;;;13.73;;
55346;SDS011;41218;55.700;38.270;2023-04-10T19:54:19;30.13;;;13.80;;
55346;SDS011;41218;55.700;38.270;2023-04-10T19:59:20;31.67;;;15.20;;
55346;SDS011;41218;55.700;38.270;2023-04-10T20:04:20;27.70;;;14.33;;
55346;SDS011;41218;55.700;38.270;2023-04-10T20:09:21;34.97;;;15.47;;
55346;SDS011;41218;55.700;38.270;2023-04-10T20:14:21;32.10;;;15.53;;
55346;SDS011;41218;55.700;38.270;2023-04-10T20:19:22;30.20;;;16.27;;
55346;SDS011;41218;55.700;38.270;2023-04-10T20:24:23;36.13;;;17.53;;
55346;SDS011;41218;55.700;38.270;2023-04-10T20:29:23;37.57;;;16.40;;
55346;SDS011;41218;55.700;38.270;2023-04-10T20:34:25;35.30;;;16.10;;
55346;SDS011;41218;55.700;38.270;2023-04-10T20:39:26;38.75;;;16.70;;
55346;SDS011;41218;55.700;38.270;2023-04-10T20:44:26;35.87;;;17.20;;
55346;SDS011;41218;55.700;38.270;2023-04-10T20:49:27;35.37;;;17.07;;
55346;SDS011;41218;55.700;38.270;2023-04-10T20:54:27;39.70;;;17.53;;
55346;SDS011;41218;55.700;38.270;2023-04-10T20:59:28;33.00;;;16.30;;
55346;SDS011;41218;55.700;38.270;2023-04-10T21:04:28;38.87;;;16.07;;
55346;SDS011;41218;55.700;38.270;2023-04-10T21:09:31;34.95;;;16.15;;
55346;SDS011;41218;55.700;38.270;2023-04-10T21:14:32;31.33;;;15.60;;
55346;SDS011;41218;55.700;38.270;2023-04-10T21:19:34;31.98;;;15.40;;
55346;SDS011;41218;55.700;38.270;2023-04-10T21:24:35;35.27;;;16.20;;
55346;SDS011;41218;55.700;38.270;2023-04-10T21:29:36;34.50;;;15.15;;
55346;SDS011;41218;55.700;38.270;2023-04-10T21:34:36;32.87;;;15.03;;
55346;SDS011;41218;55.700;38.270;2023-04-10T21:39:40;31.17;;;15.37;;
55346;SDS011;41218;55.700;38.270;2023-04-10T21:44:40;32.88;;;14.90;;
55346;SDS011;41218;55.700;38.270;2023-04-10T21:49:41;30.17;;;14.33;;
55346;SDS011;41218;55.700;38.270;2023-04-10T21:54:41;32.97;;;14.30;;
55346;SDS011;41218;55.700;38.270;2023-04-10T21:59:42;29.77;;;13.93;;
55346;SDS011;41218;55.700;38.270;2023-04-10T22:04:42;28.23;;;13.80;;
55346;SDS011;41218;55.700;38.270;2023-04-10T22:09:43;32.70;;;14.07;;
55346;SDS011;41218;55.700;38.270;2023-04-10T22:14:43;28.07;;;13.10;;
55346;SDS011;41218;55.700;38.270;2023-04-10T22:19:44;30.40;;;14.13;;
55346;SDS011;41218;55.700;38.270;2023-04-10T22:24:44;29.53;;;14.63;;
55346;SDS011;41218;55.700;38.270;2023-04-10T22:29:45;33.23;;;14.37;;
55346;SDS011;41218;55.700;38.270;2023-04-10T22:34:45;25.83;;;13.13;;
55346;SDS011;41218;55.700;38.270;2023-04-10T22:39:45;25.77;;;13.70;;
55346;SDS011;41218;55.700;38.270;2023-04-10T22:49:47;26.60;;;13.23;;
55346;SDS011;41218;55.700;38.270;2023-04-10T22:54:48;29.63;;;14.83;;
55346;SDS011;41218;55.700;38.270;2023-04-10T22:59:48;29.53;;;13.10;;
55346;SDS011;41218;55.700;38.270;2023-04-10T23:04:49;25.13;;;13.03;;
55346;SDS011;41218;55.700;38.270;2023-04-10T23:09:49;26.53;;;12.97;;
55346;SDS011;41218;55.700;38.270;2023-04-10T23:14:50;29.43;;;13.90;;
55346;SDS011;41218;55.700;38.270;2023-04-10T23:19:50;28.33;;;13.50;;
55346;SDS011;41218;55.700;38.270;2023-04-10T23:24:51;29.23;;;13.77;;
55346;SDS011;41218;55.700;38.270;2023-04-10T23:29:53;27.88;;;13.00;;
55346;SDS011;41218;55.700;38.270;2023-04-10T23:34:53;29.97;;;13.10;;
55346;SDS011;41218;55.700;38.270;2023-04-10T23:39:54;29.73;;;13.67;;
55346;SDS011;41218;55.700;38.270;2023-04-10T23:44:55;29.60;;;13.45;;
55346;SDS011;41218;55.700;38.270;2023-04-10T23:49:56;27.37;;;13.83;;
55346;SDS011;41218;55.700;38.270;2023-04-10T23:54:56;26.80;;;13.47;;
55346;SDS011;41218;55.700;38.270;2023-04-10T23:59:59;30.58;;;14.35;;
